Time;durP1;ratioP1;P1;durP2;ratioP2;P2;SDS_P1;SDS_P2;PMS_P1;PMS_P2;Temp;Humidity;BMP_temperature;BMP_pressure;BME280_temperature;BME280_humidity;BME280_pressure;Samples;Min_cycle;Max_cycle;Signal;HPM_P1;HPM_P2
2021/12/17 00:00:58;;;;;;;475.13;54.87;;;9.10;99.90;;;;;;5013586;28;20634;-61
2021/12/17 00:03:38;;;;;;;693.80;63.77;;;9.10;99.90;;;;;;5013275;28;20207;-61
2021/12/17 00:06:17;;;;;;;506.47;53.93;;;9.10;99.90;;;;;;5013684;28;20231;-61
2021/12/17 00:08:48;;;;;;;453.63;55.20;;;9.00;1.00;;;;;;5013704;28;20226;-61
2021/12/17 00:11:15;;;;;;;524.90;56.80;;;9.10;1.00;;;;;;5013274;28;20238;-61
2021/12/17 00:13:44;;;;;;;363.40;49.20;;;9.10;1.00;;;;;;5013274;28;20750;-61
2021/12/17 00:16:16;;;;;;;404.73;53.17;;;9.00;1.00;;;;;;5013453;28;20593;-61
2021/12/17 00:19:17;;;;;;;314.77;50.17;;;8.90;1.00;;;;;;5013562;28;20203;-61
2021/12/17 00:49:18;;;;;;;220.27;48.33;;;8.80;1.00;;;;;;4982131;28;20242;-61
2021/12/17 00:51:59;;;;;;;173.70;46.43;;;8.80;1.00;;;;;;5012590;28;20269;-61
2021/12/17 00:54:33;;;;;;;177.60;46.77;;;8.90;1.00;;;;;;5012873;28;20214;-62
2021/12/17 00:57:03;;;;;;;184.57;49.83;;;8.90;1.00;;;;;;5012838;28;20203;-61
2021/12/17 00:59:30;;;;;;;187.27;47.47;;;9.00;1.00;;;;;;5012883;28;20625;-60
2021/12/17 01:02:01;;;;;;;270.27;50.27;;;9.00;1.00;;;;;;5012238;28;20226;-61
2021/12/17 01:04:28;;;;;;;205.80;46.60;;;9.00;1.00;;;;;;5012889;28;20211;-61
2021/12/17 01:06:57;;;;;;;323.30;50.40;;;8.90;1.00;;;;;;5012699;28;20215;-61
2021/12/17 01:09:26;;;;;;;292.80;50.23;;;8.90;1.00;;;;;;5011702;28;20608;-61
2021/12/17 01:11:54;;;;;;;481.83;55.43;;;9.00;1.00;;;;;;5012360;28;20215;-61
2021/12/17 01:14:21;;;;;;;324.67;50.17;;;9.00;1.00;;;;;;5012076;28;20214;-61
2021/12/17 01:16:51;;;;;;;283.53;48.27;;;9.00;1.50;;;;;;5012945;28;20222;-61
2021/12/17 01:19:20;;;;;;;308.77;48.17;;;9.00;1.00;;;;;;5013330;28;20619;-61
2021/12/17 01:22:00;;;;;;;257.10;48.73;;;8.90;1.00;;;;;;5012230;28;20203;-61
2021/12/17 01:24:37;;;;;;;218.03;47.63;;;8.90;1.00;;;;;;5012487;28;20213;-61
2021/12/17 01:35:23;;;;;;;194.67;46.63;;;8.80;1.00;;;;;;5012211;28;20335;-61
2021/12/17 01:43:18;;;;;;;172.70;43.33;;;8.90;24.70;;;;;;5012090;28;20198;-61
2021/12/17 01:45:45;;;;;;;152.73;41.93;;;8.90;51.80;;;;;;5011823;28;20333;-61
2021/12/17 01:48:18;;;;;;;163.07;44.10;;;9.00;49.70;;;;;;5012185;28;20295;-61
2021/12/17 01:56:39;;;;;;;156.47;43.57;;;8.90;51.80;;;;;;5004963;28;20226;-61
2021/12/17 02:02:05;;;;;;;131.33;41.03;;;9.00;84.50;;;;;;4976105;28;20205;-61
2021/12/17 02:04:33;;;;;;;154.63;43.33;;;9.00;84.00;;;;;;5011798;28;20639;-61
2021/12/17 02:07:00;;;;;;;144.17;41.93;;;9.00;95.60;;;;;;5012025;28;20207;-62
2021/12/17 02:10:02;;;;;;;132.17;40.40;;;9.10;99.90;;;;;;5012054;28;20229;-61
2021/12/17 02:12:54;;;;;;;123.63;38.87;;;9.10;97.70;;;;;;5011345;28;20229;-61
2021/12/17 02:29:39;;;;;;;139.40;42.00;;;9.00;27.90;;;;;;5015320;28;20230;-61
2021/12/17 02:32:08;;;;;;;142.70;41.97;;;9.00;10.90;;;;;;5015231;28;20207;-62
2021/12/17 02:34:55;;;;;;;121.87;37.53;;;9.10;20.20;;;;;;5015296;28;20617;-61
2021/12/17 02:37:26;;;;;;;118.27;37.57;;;9.10;18.30;;;;;;5015230;28;20682;-61
2021/12/17 02:40:15;;;;;;;119.70;38.47;;;9.10;1.00;;;;;;5015015;28;20207;-61
2021/12/17 02:45:33;;;;;;;116.17;38.67;;;9.20;1.00;;;;;;5013994;28;20277;-61
2021/12/17 02:48:04;;;;;;;124.80;38.77;;;9.20;1.00;;;;;;5015087;28;20222;-61
2021/12/17 02:50:31;;;;;;;122.23;38.77;;;9.20;1.00;;;;;;5014897;28;20676;-62
2021/12/17 02:53:02;;;;;;;113.50;37.87;;;9.20;1.00;;;;;;5014555;28;20207;-61
2021/12/17 02:55:30;;;;;;;113.13;38.07;;;9.10;1.00;;;;;;5015032;28;20234;-61
2021/12/17 02:57:58;;;;;;;105.10;37.07;;;9.10;1.00;;;;;;5014837;28;20294;-61
2021/12/17 03:00:25;;;;;;;115.57;37.63;;;9.10;1.00;;;;;;5014609;28;20671;-62
2021/12/17 03:02:54;;;;;;;106.40;36.20;;;9.20;1.00;;;;;;5014433;28;20257;-62
2021/12/17 03:05:20;;;;;;;100.17;36.13;;;9.20;1.00;;;;;;5014852;28;20234;-61
2021/12/17 03:07:48;;;;;;;98.20;35.83;;;9.30;1.00;;;;;;5014757;28;20621;-61
2021/12/17 03:10:17;;;;;;;98.60;35.13;;;9.30;1.00;;;;;;5014736;28;20237;-61
2021/12/17 03:12:47;;;;;;;93.67;34.70;;;9.30;1.00;;;;;;5014434;28;20210;-61
2021/12/17 03:15:23;;;;;;;104.57;35.37;;;9.30;1.00;;;;;;5014483;28;20261;-61
2021/12/17 03:23:29;;;;;;;90.47;34.57;;;9.20;1.00;;;;;;5014044;28;20694;-61
2021/12/17 03:25:59;;;;;;;93.53;34.43;;;9.20;99.90;;;;;;5014433;28;20258;-63
2021/12/17 03:28:26;;;;;;;91.87;33.70;;;9.20;99.90;;;;;;5014432;28;20257;-61
2021/12/17 03:30:52;;;;;;;82.67;33.47;;;9.20;99.90;;;;;;5014177;28;20226;-61
2021/12/17 03:33:20;;;;;;;97.17;34.43;;;9.10;99.90;;;;;;5012901;28;20725;-61
2021/12/17 03:35:47;;;;;;;88.30;33.83;;;9.20;99.90;;;;;;5014115;28;20227;-61
2021/12/17 03:38:14;;;;;;;84.23;32.97;;;9.20;99.90;;;;;;5013892;28;20698;-61
2021/12/17 03:40:42;;;;;;;86.57;32.97;;;9.20;1.00;;;;;;5014177;28;20583;-61
2021/12/17 03:43:12;;;;;;;75.90;30.70;;;9.20;1.00;;;;;;5013815;28;20284;-60
2021/12/17 03:45:41;;;;;;;80.97;32.67;;;9.20;1.00;;;;;;5013778;28;20754;-61
2021/12/17 03:48:08;;;;;;;86.87;34.20;;;9.20;1.00;;;;;;5013879;28;20207;-61
2021/12/17 03:50:36;;;;;;;88.70;32.97;;;9.20;1.00;;;;;;5013753;28;20269;-62
2021/12/17 03:53:04;;;;;;;89.93;33.43;;;9.20;1.00;;;;;;5013840;28;20245;-61
2021/12/17 03:55:31;;;;;;;93.73;35.43;;;9.20;1.00;;;;;;5013886;28;20648;-61
2021/12/17 03:58:00;;;;;;;85.83;33.47;;;9.20;1.00;;;;;;5013657;28;20583;-61
2021/12/17 04:00:28;;;;;;;94.00;34.17;;;9.20;99.90;;;;;;5013640;28;20621;-61
2021/12/17 04:02:55;;;;;;;87.90;32.93;;;9.20;99.90;;;;;;5013414;28;20207;-61
2021/12/17 04:05:23;;;;;;;83.53;33.00;;;9.20;99.90;;;;;;5013073;28;20227;-61
2021/12/17 04:07:49;;;;;;;91.80;33.13;;;9.20;1.00;;;;;;5013665;28;20257;-61
2021/12/17 04:10:17;;;;;;;82.60;31.23;;;9.20;1.00;;;;;;5013489;28;20230;-61
2021/12/17 04:12:52;;;;;;;82.97;31.57;;;9.20;1.00;;;;;;5013193;28;20675;-61
2021/12/17 04:15:19;;;;;;;80.60;31.07;;;9.20;1.00;;;;;;5013351;28;20737;-61
2021/12/17 04:17:54;;;;;;;92.27;34.83;;;9.20;1.00;;;;;;5013160;28;20210;-61
2021/12/17 04:20:21;;;;;;;97.07;34.80;;;9.30;1.00;;;;;;5013434;28;20300;-61
2021/12/17 04:22:48;;;;;;;104.27;37.10;;;9.30;1.00;;;;;;5013071;28;20218;-61
2021/12/17 04:25:14;;;;;;;96.37;35.73;;;9.30;1.00;;;;;;5013203;28;20644;-61
2021/12/17 04:27:41;;;;;;;104.03;34.90;;;9.30;1.00;;;;;;5013379;28;20621;-61
2021/12/17 04:30:08;;;;;;;97.37;34.43;;;9.20;1.00;;;;;;5013051;28;20227;-61
2021/12/17 04:32:35;;;;;;;106.50;37.13;;;9.20;1.00;;;;;;5013084;28;20207;-61
2021/12/17 04:35:04;;;;;;;104.97;37.20;;;9.20;1.00;;;;;;5012945;28;20777;-61
2021/12/17 04:37:30;;;;;;;107.60;37.40;;;9.20;1.00;;;;;;5013151;28;20293;-61
2021/12/17 04:39:57;;;;;;;100.20;35.53;;;9.20;1.00;;;;;;5012953;28;20207;-61
2021/12/17 04:42:32;;;;;;;110.30;37.47;;;9.20;1.00;;;;;;5012750;28;20207;-61
2021/12/17 04:44:59;;;;;;;117.70;38.43;;;9.20;1.00;;;;;;5012559;28;20234;-61
2021/12/17 04:58:21;;;;;;;106.40;38.47;;;9.20;1.00;;;;;;5012815;28;20218;-61
2021/12/17 05:00:47;;;;;;;115.70;40.07;;;9.20;1.00;;;;;;5012850;28;20214;-61
2021/12/17 05:03:14;;;;;;;120.40;37.90;;;9.20;1.00;;;;;;5012534;28;20217;-61
2021/12/17 05:05:42;;;;;;;128.53;40.13;;;9.20;1.00;;;;;;5012440;28;20629;-61
2021/12/17 05:08:13;;;;;;;149.33;42.47;;;9.10;1.00;;;;;;5012791;28;20260;-61
2021/12/17 05:18:59;;;;;;;138.93;39.90;;;9.20;1.00;;;;;;5012388;28;20272;-61
2021/12/17 05:21:27;;;;;;;136.27;40.40;;;9.20;1.00;;;;;;5012434;28;20191;-61
2021/12/17 05:23:54;;;;;;;149.10;41.67;;;9.10;1.00;;;;;;5012531;28;20211;-60
2021/12/17 05:26:22;;;;;;;151.57;41.10;;;9.00;1.00;;;;;;5012265;28;20223;-61
2021/12/17 05:28:51;;;;;;;164.93;43.10;;;8.90;1.00;;;;;;5012286;28;20203;-60
2021/12/17 05:31:21;;;;;;;173.67;46.33;;;8.90;1.00;;;;;;5011966;28;20242;-60
2021/12/17 05:33:48;;;;;;;138.17;42.90;;;9.00;1.00;;;;;;5012506;28;20265;-60
2021/12/17 05:36:15;;;;;;;141.10;41.13;;;9.00;1.00;;;;;;5012036;28;20261;-61
2021/12/17 05:38:43;;;;;;;139.93;42.47;;;9.10;1.00;;;;;;5012155;28;20217;-61
2021/12/17 05:41:10;;;;;;;143.93;42.13;;;9.10;1.00;;;;;;5011698;28;20563;-61
2021/12/17 05:43:38;;;;;;;136.20;43.53;;;9.00;1.00;;;;;;5012306;28;20668;-60
2021/12/17 05:46:10;;;;;;;136.67;42.03;;;9.00;1.00;;;;;;5011991;28;20243;-60
2021/12/17 05:48:37;;;;;;;158.73;44.53;;;9.00;1.00;;;;;;5012250;28;20272;-61
2021/12/17 05:51:08;;;;;;;184.90;45.37;;;9.00;1.00;;;;;;5012126;28;20277;-60
2021/12/17 05:53:35;;;;;;;177.70;43.90;;;9.00;1.00;;;;;;5011919;28;20268;-61
2021/12/17 05:56:04;;;;;;;195.03;45.33;;;8.90;1.00;;;;;;5014953;28;20726;-61
2021/12/17 05:58:31;;;;;;;165.97;43.70;;;8.90;1.00;;;;;;5016293;28;20256;-61
2021/12/17 06:00:58;;;;;;;158.67;44.70;;;8.80;11.50;;;;;;5016107;28;20253;-60
2021/12/17 06:03:25;;;;;;;161.67;43.20;;;8.80;15.00;;;;;;5015625;28;20210;-61
2021/12/17 06:05:52;;;;;;;165.30;44.70;;;8.80;40.30;;;;;;5015830;28;20593;-61
2021/12/17 06:08:19;;;;;;;179.83;46.13;;;8.70;52.50;;;;;;5015609;28;20210;-61
2021/12/17 06:10:46;;;;;;;167.10;43.67;;;8.80;99.90;;;;;;5015793;28;20585;-61
2021/12/17 06:13:14;;;;;;;154.20;44.43;;;8.80;99.90;;;;;;5015656;28;20256;-61
2021/12/17 06:15:41;;;;;;;164.90;41.70;;;8.90;99.90;;;;;;5015559;28;20226;-61
2021/12/17 06:18:08;;;;;;;155.73;44.50;;;8.80;99.90;;;;;;5015959;28;20547;-61
2021/12/17 06:20:34;;;;;;;161.63;42.20;;;8.70;99.90;;;;;;5015606;28;20215;-62
2021/12/17 06:23:01;;;;;;;160.27;41.50;;;8.70;99.90;;;;;;5015272;28;20240;-61
2021/12/17 06:25:28;;;;;;;146.53;39.90;;;8.70;99.90;;;;;;5015590;28;20234;-61
2021/12/17 06:27:55;;;;;;;128.70;38.83;;;8.70;99.90;;;;;;5015450;28;20293;-61
2021/12/17 06:30:24;;;;;;;126.70;36.97;;;8.80;99.90;;;;;;5015452;28;20230;-61
2021/12/17 06:32:50;;;;;;;126.73;36.23;;;8.90;99.90;;;;;;5015079;28;20567;-61
2021/12/17 06:35:18;;;;;;;111.30;36.43;;;8.80;99.90;;;;;;5015074;28;20257;-61
2021/12/17 06:37:44;;;;;;;112.80;35.53;;;8.80;99.90;;;;;;5015217;28;20215;-61
2021/12/17 06:40:12;;;;;;;93.97;32.93;;;8.80;99.90;;;;;;5015259;28;20225;-60
2021/12/17 06:42:39;;;;;;;99.83;32.57;;;8.80;99.90;;;;;;5015080;28;20231;-61
2021/12/17 06:45:15;;;;;;;101.97;33.73;;;8.90;99.90;;;;;;5014990;28;20243;-61
2021/12/17 06:47:52;;;;;;;95.07;31.77;;;8.90;99.90;;;;;;5015030;28;20207;-61
2021/12/17 06:58:56;;;;;;;102.97;33.23;;;8.90;99.90;;;;;;4954426;29;20252;-61
2021/12/17 07:07:16;;;;;;;146.87;34.03;;;8.90;99.90;;;;;;5014456;28;20564;-61
2021/12/17 07:10:05;;;;;;;123.13;34.57;;;8.70;99.90;;;;;;5015375;28;20769;-61
2021/12/17 07:18:28;;;;;;;93.10;30.10;;;8.60;99.90;;;;;;5015396;28;20848;-60
2021/12/17 07:21:13;;;;;;;100.83;32.47;;;8.60;99.90;;;;;;5014319;28;20207;-60
2021/12/17 07:34:44;;;;;;;269.83;36.33;;;8.40;99.90;;;;;;5013528;28;20203;-61
2021/12/17 07:39:57;;;;;;;213.83;36.60;;;8.40;99.90;;;;;;5014148;28;20309;-61
2021/12/17 07:42:24;;;;;;;247.00;35.90;;;8.40;99.90;;;;;;5013946;28;20214;-61
2021/12/17 07:44:51;;;;;;;231.23;36.40;;;8.40;99.90;;;;;;5013883;28;20236;-61
2021/12/17 07:47:18;;;;;;;128.27;29.27;;;8.30;99.90;;;;;;5013972;28;20261;-61
2021/12/17 07:49:44;;;;;;;122.03;32.10;;;8.30;99.90;;;;;;5013913;28;20770;-61
2021/12/17 07:52:12;;;;;;;172.13;34.17;;;8.30;99.90;;;;;;5013557;28;20219;-61
2021/12/17 07:54:39;;;;;;;196.30;33.53;;;8.30;99.90;;;;;;5013913;28;20218;-61
2021/12/17 07:57:06;;;;;;;149.57;30.57;;;8.30;99.90;;;;;;5013952;28;20586;-60
2021/12/17 07:59:32;;;;;;;122.07;27.27;;;8.30;99.90;;;;;;5013838;28;20248;-61
2021/12/17 08:01:59;;;;;;;76.90;23.27;;;8.20;99.90;;;;;;5013551;28;20206;-60
2021/12/17 08:04:26;;;;;;;84.33;24.67;;;8.20;99.90;;;;;;5010578;28;20241;-61
2021/12/17 08:06:52;;;;;;;71.83;22.03;;;8.10;99.90;;;;;;5013378;28;20209;-61
2021/12/17 08:09:21;;;;;;;67.17;19.90;;;8.10;99.90;;;;;;5013353;28;20224;-61
2021/12/17 08:11:54;;;;;;;65.33;20.97;;;8.10;1.00;;;;;;5013258;28;20226;-61
2021/12/17 08:14:21;;;;;;;64.67;20.87;;;8.00;1.00;;;;;;5013261;28;20206;-61
2021/12/17 08:16:55;;;;;;;55.60;18.47;;;8.00;21.50;;;;;;5013144;28;20669;-61
2021/12/17 08:24:58;;;;;;;49.40;17.07;;;8.00;95.40;;;;;;5012985;28;20229;-61
2021/12/17 08:27:44;;;;;;;48.87;17.80;;;8.00;99.90;;;;;;5013119;28;20264;-60
2021/12/17 08:30:28;;;;;;;47.27;17.60;;;8.00;99.90;;;;;;5013532;28;20250;-60
2021/12/17 08:32:55;;;;;;;44.80;16.43;;;8.00;99.90;;;;;;5012815;28;20206;-65
2021/12/17 08:35:23;;;;;;;45.93;17.27;;;8.10;99.90;;;;;;5013110;28;20229;-66
2021/12/17 08:37:49;;;;;;;49.87;18.23;;;8.20;99.90;;;;;;5012792;28;20629;-61
2021/12/17 08:40:18;;;;;;;55.57;18.70;;;8.20;99.90;;;;;;5012818;28;20210;-60
2021/12/17 08:42:44;;;;;;;47.77;16.90;;;8.10;99.90;;;;;;5012664;28;20204;-60
2021/12/17 08:45:12;;;;;;;37.20;15.87;;;8.00;99.90;;;;;;5012794;28;20238;-60
2021/12/17 08:47:40;;;;;;;45.70;16.07;;;8.10;99.90;;;;;;5012686;28;20730;-60
2021/12/17 08:50:10;;;;;;;36.57;14.87;;;8.10;99.90;;;;;;5012632;28;20224;-60
2021/12/17 08:52:37;;;;;;;39.87;14.73;;;8.00;99.90;;;;;;5012262;28;20237;-61
2021/12/17 08:55:05;;;;;;;43.87;16.10;;;8.00;99.90;;;;;;5012798;28;20921;-61
2021/12/17 08:57:33;;;;;;;39.87;14.40;;;8.00;99.90;;;;;;5012930;28;20219;-61
2021/12/17 09:00:04;;;;;;;42.17;16.47;;;8.00;99.90;;;;;;4999435;28;20209;-61
2021/12/17 09:02:33;;;;;;;47.00;17.60;;;8.00;99.90;;;;;;4991205;28;20305;-61
2021/12/17 09:05:00;;;;;;;45.13;16.57;;;8.00;99.90;;;;;;4991509;28;20239;-60
2021/12/17 09:07:26;;;;;;;44.30;16.13;;;8.00;99.90;;;;;;4989985;28;20258;-59
2021/12/17 09:09:53;;;;;;;44.80;17.50;;;8.00;99.90;;;;;;4992844;28;20212;-59
2021/12/17 09:12:20;;;;;;;49.43;18.47;;;8.00;99.90;;;;;;4991810;28;20213;-59
2021/12/17 09:14:48;;;;;;;51.80;19.53;;;8.00;99.90;;;;;;4992259;28;20253;-58
2021/12/17 09:17:15;;;;;;;58.27;24.33;;;8.00;99.90;;;;;;4992616;28;20211;-59
2021/12/17 09:19:41;;;;;;;57.07;21.27;;;8.10;99.90;;;;;;4991922;28;20678;-60
2021/12/17 09:22:08;;;;;;;49.97;20.67;;;8.10;99.90;;;;;;4991879;28;20213;-59
2021/12/17 09:24:35;;;;;;;58.83;24.70;;;8.10;99.90;;;;;;4992449;28;20560;-57
2021/12/17 09:27:01;;;;;;;58.73;21.13;;;8.10;99.90;;;;;;4992331;28;20622;-59
2021/12/17 09:29:28;;;;;;;54.70;19.97;;;8.00;99.90;;;;;;4991568;28;20212;-59
2021/12/17 09:31:56;;;;;;;48.60;18.13;;;8.10;99.90;;;;;;4991603;28;20240;-60
2021/12/17 09:34:23;;;;;;;51.77;19.37;;;8.10;99.90;;;;;;4991393;28;20210;-61
2021/12/17 09:36:50;;;;;;;54.07;20.27;;;8.20;99.90;;;;;;4991956;28;20220;-61
2021/12/17 09:39:18;;;;;;;54.63;18.93;;;8.10;99.90;;;;;;4991874;28;20209;-59
2021/12/17 09:41:50;;;;;;;49.27;18.53;;;8.10;99.90;;;;;;4991938;28;20298;-59
2021/12/17 09:44:17;;;;;;;46.30;17.27;;;8.20;99.90;;;;;;4991910;28;20213;-59
2021/12/17 09:46:46;;;;;;;52.10;19.27;;;8.20;99.90;;;;;;4991844;28;20241;-61
2021/12/17 09:49:17;;;;;;;45.83;16.70;;;8.20;99.90;;;;;;4991325;28;20288;-60
2021/12/17 09:51:44;;;;;;;50.03;18.53;;;8.20;99.90;;;;;;4991985;28;20717;-61
2021/12/17 09:54:12;;;;;;;48.77;17.90;;;8.20;99.90;;;;;;4992069;28;20232;-61
2021/12/17 09:56:38;;;;;;;48.27;18.90;;;8.20;99.90;;;;;;4991860;28;20237;-60
2021/12/17 09:59:05;;;;;;;44.53;16.27;;;8.30;99.90;;;;;;4992101;28;20211;-61
2021/12/17 10:01:32;;;;;;;46.27;16.83;;;8.30;99.90;;;;;;4991406;28;20233;-61
2021/12/17 10:04:21;;;;;;;42.67;16.70;;;8.30;99.90;;;;;;4992686;28;20215;-60
2021/12/17 10:06:50;;;;;;;41.93;16.50;;;8.20;99.90;;;;;;4992306;28;20723;-60
2021/12/17 10:09:17;;;;;;;40.93;16.00;;;8.30;99.90;;;;;;4991914;28;20690;-60
2021/12/17 10:12:05;;;;;;;45.67;17.17;;;8.20;99.90;;;;;;4991598;28;20225;-61
2021/12/17 10:14:32;;;;;;;40.57;16.03;;;8.20;99.90;;;;;;4992041;28;20221;-60
2021/12/17 10:17:10;;;;;;;46.63;18.13;;;8.20;99.90;;;;;;4992357;28;20218;-61
2021/12/17 10:19:46;;;;;;;39.87;16.27;;;8.20;99.90;;;;;;4991444;28;20205;-61
2021/12/17 10:22:14;;;;;;;40.90;15.23;;;8.20;99.90;;;;;;4991888;28;20207;-60
2021/12/17 10:24:44;;;;;;;36.97;15.43;;;8.10;99.90;;;;;;4992349;28;20212;-60
2021/12/17 10:27:22;;;;;;;36.00;14.53;;;8.10;99.90;;;;;;4991882;28;20748;-60
2021/12/17 10:29:48;;;;;;;33.40;14.47;;;8.10;99.90;;;;;;4991281;28;20217;-61
2021/12/17 10:32:19;;;;;;;35.60;15.07;;;8.10;99.90;;;;;;5003734;28;20229;-60
2021/12/17 10:35:07;;;;;;;43.53;19.03;;;8.10;99.90;;;;;;5011222;28;20234;-61
2021/12/17 10:37:39;;;;;;;34.20;14.87;;;8.20;99.90;;;;;;5008520;28;20213;-60
2021/12/17 10:40:19;;;;;;;28.20;13.13;;;8.20;99.90;;;;;;4991718;28;20713;-62
2021/12/17 10:42:58;;;;;;;31.20;13.43;;;8.20;99.90;;;;;;4995364;28;20220;-65
2021/12/17 10:45:27;;;;;;;28.33;12.37;;;8.50;99.90;;;;;;4994748;28;20242;-61
2021/12/17 10:48:28;;;;;;;25.60;11.90;;;8.60;99.90;;;;;;4995069;28;20265;-62
2021/12/17 10:51:20;;;;;;;30.27;11.43;;;8.60;99.90;;;;;;4994903;28;20226;-59
2021/12/17 10:53:54;;;;;;;24.90;11.23;;;8.60;99.90;;;;;;4995300;28;20199;-61
2021/12/17 10:56:22;;;;;;;24.03;10.47;;;8.50;99.90;;;;;;4995235;28;20596;-62
2021/12/17 10:58:58;;;;;;;19.73;9.80;;;8.40;94.20;;;;;;4995177;28;20629;-61
2021/12/17 11:01:37;;;;;;;18.40;9.63;;;8.30;13.00;;;;;;4995189;28;20267;-61
2021/12/17 11:04:18;;;;;;;19.93;10.00;;;8.30;4.00;;;;;;4994688;28;20213;-61
2021/12/17 11:06:52;;;;;;;24.37;10.33;;;8.30;6.60;;;;;;4995213;28;20240;-61
2021/12/17 11:09:41;;;;;;;24.67;10.93;;;8.30;1.00;;;;;;4997793;28;20209;-61
2021/12/17 11:12:27;;;;;;;22.70;10.43;;;8.20;1.00;;;;;;5014432;28;20232;-63
2021/12/17 11:14:56;;;;;;;17.43;9.10;;;8.10;1.00;;;;;;5014102;28;20702;-61
2021/12/17 11:17:23;;;;;;;26.73;12.03;;;8.20;1.00;;;;;;5014452;28;20213;-61
2021/12/17 11:19:52;;;;;;;23.37;10.87;;;8.20;1.00;;;;;;5013851;28;20208;-62
2021/12/17 11:22:23;;;;;;;22.93;11.20;;;8.30;1.00;;;;;;5013169;28;20221;-62
2021/12/17 11:24:50;;;;;;;18.83;10.17;;;8.30;1.00;;;;;;5013793;28;20229;-62
2021/12/17 11:27:17;;;;;;;21.80;10.67;;;8.30;1.00;;;;;;5003413;28;20218;-62
2021/12/17 11:29:44;;;;;;;19.63;10.33;;;8.30;1.00;;;;;;5009687;28;20210;-61
2021/12/17 11:32:13;;;;;;;17.77;9.57;;;8.30;1.00;;;;;;5014222;28;20280;-61
2021/12/17 11:34:41;;;;;;;18.13;10.23;;;8.30;1.00;;;;;;5014243;28;20219;-60
2021/12/17 11:37:09;;;;;;;16.83;9.00;;;8.30;1.00;;;;;;5014178;28;20267;-62
2021/12/17 11:39:44;;;;;;;18.87;9.30;;;8.30;1.00;;;;;;5012863;28;20273;-62
2021/12/17 11:42:28;;;;;;;17.60;9.53;;;8.30;1.00;;;;;;5013551;28;20210;-61
2021/12/17 11:47:37;;;;;;;12.93;7.60;;;8.30;1.00;;;;;;5012032;28;20284;-61
2021/12/17 11:50:10;;;;;;;13.33;7.27;;;8.30;1.00;;;;;;5013556;28;20256;-64
2021/12/17 11:52:42;;;;;;;14.87;8.27;;;8.30;1.00;;;;;;5013241;28;20237;-62
2021/12/17 11:55:34;;;;;;;12.97;7.70;;;8.40;1.00;;;;;;5013513;28;20237;-62
2021/12/17 11:58:04;;;;;;;12.37;6.87;;;8.50;1.00;;;;;;5013488;28;20213;-58
2021/12/17 12:00:32;;;;;;;13.73;7.67;;;8.50;1.00;;;;;;5012934;28;20217;-62
2021/12/17 12:03:15;;;;;;;10.73;5.50;;;8.50;1.00;;;;;;5013116;28;20267;-63
2021/12/17 12:05:44;;;;;;;9.10;5.23;;;8.30;99.90;;;;;;5013326;28;20237;-60
2021/12/17 12:08:30;;;;;;;7.90;3.80;;;8.30;99.90;;;;;;5013110;28;20243;-60
2021/12/17 12:11:06;;;;;;;8.00;4.37;;;8.20;99.90;;;;;;5012964;28;20217;-58
2021/12/17 12:13:35;;;;;;;7.13;3.70;;;8.10;99.90;;;;;;5013274;28;20231;-60
2021/12/17 12:16:03;;;;;;;10.03;4.03;;;8.10;99.90;;;;;;5012853;28;20267;-60
2021/12/17 12:18:43;;;;;;;9.30;5.10;;;8.00;99.90;;;;;;5013087;28;20209;-61
2021/12/17 12:21:11;;;;;;;9.63;4.93;;;8.00;99.90;;;;;;5012194;28;20585;-62
2021/12/17 12:23:42;;;;;;;8.60;5.03;;;8.00;99.90;;;;;;5013034;28;20230;-62
2021/12/17 12:26:23;;;;;;;9.07;5.27;;;8.00;1.00;;;;;;5012694;28;20723;-63
2021/12/17 12:29:21;;;;;;;10.53;5.90;;;8.00;1.00;;;;;;5013138;28;20204;-60
2021/12/17 12:31:59;;;;;;;8.90;5.43;;;8.00;1.00;;;;;;5012058;28;20333;-59
2021/12/17 12:34:37;;;;;;;8.60;5.27;;;8.00;1.00;;;;;;5012850;28;20219;-57
2021/12/17 12:37:26;;;;;;;7.70;4.50;;;8.10;1.00;;;;;;5012873;28;20220;-60
2021/12/17 12:40:16;;;;;;;8.00;4.93;;;8.10;99.90;;;;;;5012485;28;20254;-60
2021/12/17 12:42:52;;;;;;;8.23;5.10;;;8.10;99.90;;;;;;5012328;28;20207;-60
2021/12/17 12:45:19;;;;;;;9.77;5.77;;;8.10;99.90;;;;;;5012371;28;20235;-61
2021/12/17 12:47:58;;;;;;;10.87;5.50;;;8.10;99.90;;;;;;5012737;28;20262;-61
2021/12/17 12:50:27;;;;;;;10.60;5.20;;;8.10;99.90;;;;;;5011993;28;20212;-59
2021/12/17 12:52:56;;;;;;;8.67;5.20;;;8.10;99.90;;;;;;5012446;28;20243;-61
2021/12/17 12:55:27;;;;;;;8.27;5.60;;;8.10;95.90;;;;;;5012405;28;20232;-60
2021/12/17 12:58:06;;;;;;;7.13;4.70;;;8.00;1.00;;;;;;5012675;28;20271;-61
2021/12/17 13:00:36;;;;;;;7.03;4.40;;;8.00;1.00;;;;;;5011959;28;20213;-61
2021/12/17 13:03:06;;;;;;;5.97;3.77;;;8.20;1.00;;;;;;5011716;28;20218;-60
2021/12/17 13:05:36;;;;;;;5.60;3.70;;;8.20;1.00;;;;;;5011521;28;20253;-60
2021/12/17 13:08:06;;;;;;;6.93;4.20;;;8.30;1.00;;;;;;5012259;28;20210;-60
2021/12/17 13:10:35;;;;;;;9.67;6.07;;;8.40;99.90;;;;;;5012180;28;20626;-59
2021/12/17 13:13:07;;;;;;;10.83;7.10;;;8.30;1.00;;;;;;5011753;28;20226;-59
2021/12/17 13:15:43;;;;;;;10.20;6.37;;;8.20;99.90;;;;;;5012460;28;20341;-62
2021/12/17 13:21:16;;;;;;;10.23;7.10;;;8.10;99.90;;;;;;5011697;28;20211;-61
2021/12/17 13:23:48;;;;;;;11.30;7.30;;;8.00;99.90;;;;;;5011696;28;20253;-60
2021/12/17 13:26:16;;;;;;;12.03;6.97;;;8.00;99.90;;;;;;5011892;28;20282;-60
2021/12/17 13:28:53;;;;;;;10.57;7.67;;;8.00;23.60;;;;;;5011909;28;20208;-60
2021/12/17 13:31:48;;;;;;;12.97;8.20;;;8.00;99.90;;;;;;5011175;28;20208;-61
2021/12/17 13:34:28;;;;;;;10.97;6.90;;;8.10;99.90;;;;;;4994541;28;20221;-60
2021/12/17 13:37:00;;;;;;;13.20;7.73;;;8.10;99.90;;;;;;5012234;28;20193;-60
2021/12/17 13:39:29;;;;;;;12.00;7.47;;;8.00;1.00;;;;;;5011750;28;20208;-60
2021/12/17 13:41:56;;;;;;;10.03;6.90;;;7.90;99.90;;;;;;5011767;28;20204;-60
2021/12/17 13:44:34;;;;;;;10.93;7.70;;;8.00;99.90;;;;;;5011331;28;20552;-60
2021/12/17 13:47:12;;;;;;;12.80;9.10;;;7.90;99.90;;;;;;5011937;28;20209;-60
2021/12/17 13:49:41;;;;;;;10.70;7.43;;;8.00;1.00;;;;;;5011590;28;20213;-60
2021/12/17 13:52:09;;;;;;;10.43;7.83;;;8.00;99.90;;;;;;5011418;28;20241;-60
2021/12/17 13:54:37;;;;;;;9.03;6.80;;;8.00;1.00;;;;;;5011381;28;20225;-60
2021/12/17 13:57:06;;;;;;;8.57;6.57;;;8.00;1.00;;;;;;5011290;28;20582;-60
2021/12/17 13:59:36;;;;;;;8.87;6.63;;;7.90;99.90;;;;;;5011536;28;20305;-60
2021/12/17 14:02:09;;;;;;;7.73;6.13;;;7.90;1.00;;;;;;5011122;28;20215;-60
2021/12/17 14:04:36;;;;;;;9.27;6.70;;;7.80;1.00;;;;;;5011570;28;20240;-60
2021/12/17 14:07:06;;;;;;;9.20;6.60;;;7.90;21.70;;;;;;5011520;28;20580;-60
2021/12/17 14:09:32;;;;;;;10.40;6.20;;;7.90;54.80;;;;;;5011167;28;20216;-60
2021/12/17 14:12:12;;;;;;;8.43;6.47;;;7.90;24.10;;;;;;5011315;28;20232;-60
2021/12/17 14:14:40;;;;;;;9.80;6.20;;;7.80;1.00;;;;;;5011372;28;20217;-61
2021/12/17 14:17:09;;;;;;;8.63;5.97;;;7.90;1.00;;;;;;5014466;28;20210;-62
2021/12/17 14:19:41;;;;;;;8.60;6.13;;;7.90;1.00;;;;;;5015099;28;20209;-62
2021/12/17 14:22:26;;;;;;;10.33;7.30;;;7.90;1.00;;;;;;5014900;28;20212;-66
2021/12/17 14:24:53;;;;;;;10.27;6.00;;;7.90;99.90;;;;;;5015160;28;20239;-66
2021/12/17 14:27:20;;;;;;;8.73;6.07;;;8.10;1.00;;;;;;5015317;28;20620;-66
2021/12/17 14:30:00;;;;;;;7.17;5.30;;;8.10;99.90;;;;;;5015044;28;20206;-65
2021/12/17 14:32:27;;;;;;;6.10;4.33;;;8.00;99.90;;;;;;5014285;28;20225;-66
2021/12/17 14:34:54;;;;;;;9.23;6.17;;;8.00;12.20;;;;;;5015180;28;20232;-66
2021/12/17 14:37:21;;;;;;;10.50;6.70;;;8.10;99.90;;;;;;5014934;28;20206;-66
2021/12/17 14:39:48;;;;;;;9.40;6.40;;;8.10;1.00;;;;;;5014623;28;20212;-66
2021/12/17 14:42:29;;;;;;;8.87;6.37;;;8.00;42.90;;;;;;5014457;28;20674;-67
2021/12/17 14:45:05;;;;;;;7.17;4.87;;;8.00;1.00;;;;;;5014608;28;20244;-68
2021/12/17 14:47:37;;;;;;;8.70;5.97;;;7.90;1.00;;;;;;5014879;28;20217;-68
2021/12/17 15:01:18;;;;;;;12.20;7.70;;;8.00;43.60;;;;;;5013772;28;20200;-67
2021/12/17 15:03:45;;;;;;;9.73;6.30;;;8.20;1.00;;;;;;5014460;28;20634;-67
2021/12/17 15:06:15;;;;;;;8.63;6.67;;;8.20;1.00;;;;;;5014601;28;20272;-66
2021/12/17 15:08:43;;;;;;;8.73;5.87;;;8.20;1.00;;;;;;5013656;28;20206;-63
2021/12/17 15:11:15;;;;;;;8.70;5.83;;;8.20;1.00;;;;;;5013864;28;20611;-60
2021/12/17 15:13:42;;;;;;;7.90;5.73;;;8.10;99.90;;;;;;5014452;28;20259;-60
2021/12/17 15:16:10;;;;;;;9.43;6.07;;;8.10;99.90;;;;;;5014071;28;20237;-60
2021/12/17 15:18:39;;;;;;;7.87;6.03;;;8.00;1.00;;;;;;5014620;28;20212;-61
2021/12/17 15:21:05;;;;;;;9.13;6.40;;;7.90;1.00;;;;;;5013855;28;20205;-60
2021/12/17 15:23:32;;;;;;;9.83;6.30;;;7.80;1.00;;;;;;5014227;28;20229;-60
2021/12/17 15:25:59;;;;;;;10.50;6.87;;;7.70;1.00;;;;;;5013946;28;20323;-61
2021/12/17 15:28:27;;;;;;;10.83;6.73;;;7.70;1.00;;;;;;5013113;28;20332;-61
2021/12/17 15:30:55;;;;;;;11.07;6.87;;;7.70;73.00;;;;;;5013695;28;20248;-61